Impacts TAF Board
For situational awareness. Not to be used for flight planning purposes.
IDs:

KSGR - Houston/Sugar Land R, TX, US

Issued at 1140 UTC 13 Dec 2019
Updated at 1418 UTC 13 Dec 2019
Potential Impact None Slight Moderate High
Time1353Z 13/15Z 13/16Z 13/17Z 13/18Z 13/19Z 13/20Z 13/21Z 13/22Z 13/23Z 14/00Z 14/01Z 14/02Z 14/03Z>>
Type OBS PRVL PRVL PRVL PRVL PRVL PRVL PRVL PRVL PRVL PRVL PRVL PRVL PRVL
VIS 10 >6 >6 >6 >6 >6 >6 >6 >6 >6 >6 >6 >6 >6
CIG -- 25 -- -- -- -- -- -- -- -- -- -- -- --
Cover CLR BKN SCT SCT FEW FEW FEW FEW FEW FEW FEW SKC SKC SKC
FltCat VFR MVFR VFR VFR VFR VFR VFR VFR VFR VFR VFR VFR VFR VFR
WX -- -- -- -- -- -- -- -- -- -- -- -- -- --
WDir 260 VRB 220 220 240 240 240 240 240 240 240 290 290 290
WSpd 3 2 6 6 11 11 11 11 11 11 11 4 4 4
WGst -- -- -- -- -- -- -- -- -- -- -- -- -- --
Raw TAF
KSGR 131140Z 1312/1412 VRB02KT P6SM SCT015 BKN025
  TEMPO 1312/1315 5SM BR SCT008 BKN015
  FM131600 22006KT P6SM SCT015 SCT025
  FM131800 24011KT P6SM FEW035
  FM140100 29004KT P6SM SKC
  FM140500 34003KT P6SM SKC


Raw METAR
KSGR 131353Z 26003KT 10SM CLR 12/11 A2998 RMK AO2 SLP155 T01170111
KSGR 131253Z 00000KT 10SM FEW019 SCT036 BKN043 12/11 A2998 RMK AO2 SLP153 T01170111
KSGR 131250Z 00000KT 10SM FEW019 BKN034 BKN043 12/11 A2998 RMK AO2
KSGR 131242Z 00000KT 10SM SCT021 BKN029 BKN036 12/11 A2998 RMK AO2 T01170111
KSGR 131212Z 00000KT 10SM FEW022 SCT027 BKN032 11/11 A2998 RMK AO2 T01110106
KSGR 131153Z 00000KT 10SM FEW021 BKN029 12/11 A2997 RMK AO2 SLP150 T01170111 10144 20111 56017
KSGR 131138Z AUTO 00000KT 10SM FEW023 12/11 A2996 RMK AO2 T01170106

METAR Board
Radar Display
Forecast Discussion
For situational awareness. Not to be used for flight planning purposes.